Time;durP1;ratioP1;P1;durP2;ratioP2;P2;SDS_P1;SDS_P2;PMS_P1;PMS_P2;Temp;Humidity;BMP_temperature;BMP_pressure;BME280_temperature;BME280_humidity;BME280_pressure;Samples;Min_cycle;Max_cycle;Signal;HPM_P1;HPM_P2
2023/04/14 00:00:39;;;;;;;0.70;0.70;;;;;;;;;;5058342;28;20179;-85
2023/04/14 00:03:05;;;;;;;0.67;0.67;;;;;;;;;;5057973;28;20195;-84
2023/04/14 00:05:31;;;;;;;0.60;0.60;;;;;;;;;;5058307;28;20233;-84
2023/04/14 00:07:57;;;;;;;0.70;0.70;;;;;;;;;;5058940;28;20245;-84
2023/04/14 00:10:23;;;;;;;0.60;0.60;;;;;;;;;;5058161;28;20218;-84
2023/04/14 00:12:50;;;;;;;0.77;0.77;;;;;;;;;;5056618;28;20190;-84
2023/04/14 00:15:16;;;;;;;0.60;0.60;;;;;;;;;;5038640;28;20172;-85
2023/04/14 00:17:42;;;;;;;0.70;0.70;;;;;;;;;;5038876;28;20650;-85
2023/04/14 00:20:08;;;;;;;0.60;0.60;;;;;;;;;;5038377;28;20274;-85
2023/04/14 00:22:34;;;;;;;0.60;0.60;;;;;;;;;;5037516;28;20223;-84
2023/04/14 00:25:01;;;;;;;0.70;0.70;;;;;;;;;;5037925;28;20253;-84
2023/04/14 00:27:28;;;;;;;0.70;0.70;;;;;;;;;;5038138;28;20269;-84
2023/04/14 00:29:54;;;;;;;0.70;0.70;;;;;;;;;;5038656;28;20187;-85
2023/04/14 00:32:20;;;;;;;0.80;0.80;;;;;;;;;;5039555;28;20230;-85
2023/04/14 00:34:46;;;;;;;0.60;0.60;;;;;;;;;;5042366;28;20275;-85
2023/04/14 00:37:12;;;;;;;0.60;0.60;;;;;;;;;;5042325;28;20642;-84
2023/04/14 00:39:38;;;;;;;0.70;0.70;;;;;;;;;;5042599;28;20183;-85
2023/04/14 00:42:04;;;;;;;0.67;0.67;;;;;;;;;;5042755;28;20206;-84
2023/04/14 00:44:30;;;;;;;0.60;0.60;;;;;;;;;;5042430;28;20192;-85
2023/04/14 00:46:57;;;;;;;0.70;0.70;;;;;;;;;;5043329;28;20199;-85
2023/04/14 00:49:23;;;;;;;0.60;0.60;;;;;;;;;;5043101;28;20194;-85
2023/04/14 00:51:49;;;;;;;0.80;0.80;;;;;;;;;;5042902;28;20545;-86
2023/04/14 00:54:18;;;;;;;0.60;0.60;;;;;;;;;;5042803;28;20198;-84
2023/04/14 00:56:44;;;;;;;0.60;0.60;;;;;;;;;;5043470;28;20176;-85
2023/04/14 00:59:11;;;;;;;0.70;0.70;;;;;;;;;;5043419;28;20235;-85
2023/04/14 01:01:37;;;;;;;0.70;0.70;;;;;;;;;;5044211;28;20190;-85
2023/04/14 01:04:03;;;;;;;0.60;0.60;;;;;;;;;;5044981;28;20218;-85
2023/04/14 01:06:29;;;;;;;0.80;0.80;;;;;;;;;;5058517;28;20183;-83
2023/04/14 01:08:56;;;;;;;0.70;0.70;;;;;;;;;;5058936;28;20234;-84
2023/04/14 01:11:28;;;;;;;0.70;0.70;;;;;;;;;;5043366;28;20202;-84
2023/04/14 01:14:03;;;;;;;0.70;0.70;;;;;;;;;;5037440;28;20735;-85
2023/04/14 01:16:34;;;;;;;0.63;0.63;;;;;;;;;;5037143;28;20594;-84
2023/04/14 01:19:20;;;;;;;0.60;0.60;;;;;;;;;;5037433;28;20176;-84
2023/04/14 01:21:50;;;;;;;0.80;0.80;;;;;;;;;;5037106;28;20175;-84
2023/04/14 01:24:15;;;;;;;0.70;0.70;;;;;;;;;;5036092;28;20560;-84
2023/04/14 01:26:42;;;;;;;0.70;0.70;;;;;;;;;;5036966;28;20180;-84
2023/04/14 01:29:27;;;;;;;0.60;0.60;;;;;;;;;;5036843;28;20215;-84
2023/04/14 01:31:56;;;;;;;0.70;0.70;;;;;;;;;;5036390;28;20203;-84
2023/04/14 01:34:45;;;;;;;0.70;0.70;;;;;;;;;;5036098;28;20207;-84
2023/04/14 01:37:16;;;;;;;0.70;0.70;;;;;;;;;;5030968;28;20249;-84
2023/04/14 01:39:45;;;;;;;0.70;0.70;;;;;;;;;;5059634;28;20176;-84
2023/04/14 01:42:15;;;;;;;0.70;0.70;;;;;;;;;;5059795;28;20168;-84
2023/04/14 01:44:41;;;;;;;0.70;0.70;;;;;;;;;;5058779;28;20211;-84
2023/04/14 01:47:09;;;;;;;0.60;0.60;;;;;;;;;;5060015;28;20190;-84
2023/04/14 01:49:37;;;;;;;0.70;0.70;;;;;;;;;;5060479;28;20184;-84
2023/04/14 01:52:05;;;;;;;0.70;0.70;;;;;;;;;;5059437;28;20156;-84
2023/04/14 01:54:31;;;;;;;0.60;0.60;;;;;;;;;;5042730;28;20196;-83
2023/04/14 01:57:00;;;;;;;0.70;0.70;;;;;;;;;;5038350;28;20263;-85
2023/04/14 01:59:26;;;;;;;0.60;0.60;;;;;;;;;;5038110;28;20531;-85
2023/04/14 02:01:52;;;;;;;0.70;0.70;;;;;;;;;;5037960;28;20317;-84
2023/04/14 02:04:20;;;;;;;0.60;0.60;;;;;;;;;;5037626;28;20678;-84
2023/04/14 02:06:47;;;;;;;0.67;0.67;;;;;;;;;;5037713;28;20187;-84
2023/04/14 02:09:14;;;;;;;0.70;0.70;;;;;;;;;;5038112;28;20262;-84
2023/04/14 02:11:42;;;;;;;0.70;0.70;;;;;;;;;;5038072;28;20195;-84
2023/04/14 02:14:09;;;;;;;0.80;0.80;;;;;;;;;;5037372;28;20203;-84
2023/04/14 02:16:36;;;;;;;0.70;0.70;;;;;;;;;;5038212;28;20590;-84
2023/04/14 02:19:03;;;;;;;0.90;0.90;;;;;;;;;;5038445;28;20175;-85
2023/04/14 02:21:31;;;;;;;0.70;0.70;;;;;;;;;;5038599;28;20199;-84
2023/04/14 02:23:57;;;;;;;0.70;0.70;;;;;;;;;;5036614;28;20227;-84
2023/04/14 02:26:25;;;;;;;0.70;0.70;;;;;;;;;;5039120;28;20547;-84
2023/04/14 02:29:05;;;;;;;0.70;0.70;;;;;;;;;;5039282;28;20728;-83
2023/04/14 02:31:33;;;;;;;0.80;0.80;;;;;;;;;;5038910;28;20253;-84
2023/04/14 02:34:00;;;;;;;0.70;0.70;;;;;;;;;;5038800;28;20187;-84
2023/04/14 02:36:28;;;;;;;0.70;0.70;;;;;;;;;;5038894;28;20175;-84
2023/04/14 02:38:57;;;;;;;0.80;0.80;;;;;;;;;;5038692;28;20176;-84
2023/04/14 02:41:25;;;;;;;0.80;0.80;;;;;;;;;;5039590;28;20182;-84
2023/04/14 02:44:00;;;;;;;0.70;0.70;;;;;;;;;;5039258;28;20311;-84
2023/04/14 02:46:29;;;;;;;0.80;0.80;;;;;;;;;;5040241;28;20185;-84
2023/04/14 02:48:55;;;;;;;0.80;0.80;;;;;;;;;;5040246;28;20211;-85
2023/04/14 02:51:21;;;;;;;0.77;0.77;;;;;;;;;;5040589;28;20188;-85
2023/04/14 02:53:48;;;;;;;0.70;0.70;;;;;;;;;;5040440;28;20196;-85
2023/04/14 02:56:14;;;;;;;0.70;0.70;;;;;;;;;;5039654;28;20634;-84
2023/04/14 02:58:41;;;;;;;0.80;0.80;;;;;;;;;;5040974;28;20190;-85
2023/04/14 03:01:07;;;;;;;0.80;0.80;;;;;;;;;;5041603;28;20195;-84
2023/04/14 03:03:36;;;;;;;0.80;0.80;;;;;;;;;;5039852;28;20222;-85
2023/04/14 03:06:03;;;;;;;0.80;0.80;;;;;;;;;;5045122;28;20187;-84
2023/04/14 03:08:30;;;;;;;0.70;0.70;;;;;;;;;;5056719;28;20261;-84
2023/04/14 03:10:56;;;;;;;0.60;0.60;;;;;;;;;;5057008;28;20206;-84
2023/04/14 03:13:26;;;;;;;0.80;0.80;;;;;;;;;;5056607;28;20210;-84
2023/04/14 03:15:53;;;;;;;0.80;0.80;;;;;;;;;;5038413;28;20172;-84
2023/04/14 03:18:20;;;;;;;0.70;0.70;;;;;;;;;;5039087;28;20176;-84
2023/04/14 03:20:49;;;;;;;0.67;0.67;;;;;;;;;;5038693;28;20253;-84
2023/04/14 03:23:17;;;;;;;0.80;0.80;;;;;;;;;;5038368;28;20200;-84
2023/04/14 03:25:44;;;;;;;0.80;0.80;;;;;;;;;;5038349;28;20407;-84
2023/04/14 03:28:14;;;;;;;0.70;0.70;;;;;;;;;;5037996;28;20222;-84
2023/04/14 03:30:43;;;;;;;0.80;0.80;;;;;;;;;;5038854;28;20852;-84
2023/04/14 03:33:11;;;;;;;0.80;0.80;;;;;;;;;;5038927;28;20199;-85
2023/04/14 03:35:37;;;;;;;0.70;0.70;;;;;;;;;;5038795;28;20190;-84
2023/04/14 03:38:07;;;;;;;0.70;0.70;;;;;;;;;;5038033;28;20180;-85
2023/04/14 03:40:37;;;;;;;0.80;0.80;;;;;;;;;;5038670;28;20190;-84
2023/04/14 03:43:04;;;;;;;0.70;0.70;;;;;;;;;;5039176;28;20873;-84
2023/04/14 03:45:31;;;;;;;0.77;0.77;;;;;;;;;;5044828;28;20164;-86
2023/04/14 03:48:02;;;;;;;0.80;0.80;;;;;;;;;;5040970;28;20204;-85
2023/04/14 03:50:35;;;;;;;0.70;0.70;;;;;;;;;;5042418;28;20179;-85
2023/04/14 03:53:01;;;;;;;0.80;0.80;;;;;;;;;;5041680;28;20253;-84
2023/04/14 03:55:30;;;;;;;0.80;0.80;;;;;;;;;;5048054;28;20206;-85
2023/04/14 03:57:59;;;;;;;0.60;0.60;;;;;;;;;;5056431;28;20198;-84
2023/04/14 04:00:26;;;;;;;0.70;0.70;;;;;;;;;;5057774;28;20168;-84
2023/04/14 04:02:53;;;;;;;0.80;0.80;;;;;;;;;;5056210;28;20206;-85
2023/04/14 04:05:20;;;;;;;0.80;0.80;;;;;;;;;;5057128;28;20194;-85
2023/04/14 04:07:46;;;;;;;0.70;0.70;;;;;;;;;;5055152;28;20303;-84
2023/04/14 04:10:13;;;;;;;0.80;0.80;;;;;;;;;;5042374;28;20343;-84
2023/04/14 04:12:41;;;;;;;0.80;0.80;;;;;;;;;;5033582;28;20222;-83
2023/04/14 04:15:07;;;;;;;0.60;0.60;;;;;;;;;;5034783;28;20223;-84
2023/04/14 04:17:34;;;;;;;0.70;0.70;;;;;;;;;;5033984;28;20560;-84
2023/04/14 04:20:01;;;;;;;0.70;0.70;;;;;;;;;;5033513;28;20210;-84
2023/04/14 04:22:28;;;;;;;0.70;0.70;;;;;;;;;;5035838;28;20521;-84
2023/04/14 04:24:55;;;;;;;0.90;0.90;;;;;;;;;;5033595;28;20552;-84
2023/04/14 04:27:22;;;;;;;0.73;0.73;;;;;;;;;;5034059;28;20580;-84
2023/04/14 04:29:48;;;;;;;0.80;0.80;;;;;;;;;;5033933;28;20280;-84
2023/04/14 04:32:14;;;;;;;0.87;0.87;;;;;;;;;;5034057;28;20176;-84
2023/04/14 04:34:40;;;;;;;0.77;0.77;;;;;;;;;;5032803;28;20210;-84
2023/04/14 04:37:06;;;;;;;0.80;0.80;;;;;;;;;;5033194;28;20248;-85
2023/04/14 04:39:32;;;;;;;0.80;0.80;;;;;;;;;;5033017;28;20333;-84
2023/04/14 04:42:05;;;;;;;0.80;0.80;;;;;;;;;;5033522;28;20184;-84
2023/04/14 04:44:32;;;;;;;0.70;0.70;;;;;;;;;;5033702;28;20715;-84
2023/04/14 04:46:58;;;;;;;0.70;0.70;;;;;;;;;;5034938;28;20650;-85
2023/04/14 04:49:24;;;;;;;0.70;0.70;;;;;;;;;;5036951;28;20218;-85
2023/04/14 04:51:50;;;;;;;0.80;0.80;;;;;;;;;;5045212;28;20175;-87
2023/04/14 04:54:16;;;;;;;0.80;0.80;;;;;;;;;;5042103;28;20211;-85
2023/04/14 04:56:42;;;;;;;0.77;0.77;;;;;;;;;;5042029;28;20180;-85
2023/04/14 04:59:08;;;;;;;0.80;0.80;;;;;;;;;;5044430;28;20220;-84
2023/04/14 05:01:34;;;;;;;0.80;0.80;;;;;;;;;;5053645;28;20163;-85
2023/04/14 05:04:01;;;;;;;0.80;0.80;;;;;;;;;;5034348;28;20249;-85
2023/04/14 05:06:27;;;;;;;0.70;0.70;;;;;;;;;;5052984;28;20246;-85
2023/04/14 05:08:56;;;;;;;0.70;0.70;;;;;;;;;;5055951;28;20239;-85
2023/04/14 05:11:22;;;;;;;0.80;0.80;;;;;;;;;;5056350;28;20187;-85
2023/04/14 05:13:48;;;;;;;0.80;0.80;;;;;;;;;;5052545;28;20710;-84
2023/04/14 05:16:14;;;;;;;0.70;0.70;;;;;;;;;;5035882;28;20172;-84
2023/04/14 05:18:41;;;;;;;0.80;0.80;;;;;;;;;;5038349;28;20180;-85
2023/04/14 05:21:07;;;;;;;0.80;0.80;;;;;;;;;;5038557;28;20263;-85
2023/04/14 05:23:35;;;;;;;0.80;0.80;;;;;;;;;;5054996;28;20634;-85
2023/04/14 05:26:01;;;;;;;0.90;0.90;;;;;;;;;;5058687;28;20179;-87
2023/04/14 05:28:27;;;;;;;0.80;0.80;;;;;;;;;;5046184;28;20214;-87
2023/04/14 05:30:53;;;;;;;0.70;0.70;;;;;;;;;;5040237;28;20176;-85
2023/04/14 05:33:19;;;;;;;0.70;0.70;;;;;;;;;;5038694;28;20227;-86
2023/04/14 05:35:45;;;;;;;0.90;0.90;;;;;;;;;;5039479;28;20267;-86
2023/04/14 05:38:12;;;;;;;0.80;0.80;;;;;;;;;;5039821;28;20239;-85
2023/04/14 05:40:38;;;;;;;0.90;0.90;;;;;;;;;;5040661;28;20203;-87
2023/04/14 05:43:04;;;;;;;0.80;0.80;;;;;;;;;;5047613;28;20195;-84
2023/04/14 05:45:30;;;;;;;0.77;0.77;;;;;;;;;;5057452;28;20317;-84
2023/04/14 05:47:56;;;;;;;0.70;0.70;;;;;;;;;;5052354;28;20203;-84
2023/04/14 05:50:22;;;;;;;0.70;0.70;;;;;;;;;;5051446;28;20526;-85
2023/04/14 05:52:48;;;;;;;0.70;0.70;;;;;;;;;;5058861;28;20214;-84
2023/04/14 05:55:14;;;;;;;0.67;0.67;;;;;;;;;;5058247;28;20167;-84
2023/04/14 05:57:41;;;;;;;0.70;0.70;;;;;;;;;;5058608;28;20207;-84
2023/04/14 06:00:07;;;;;;;0.70;0.70;;;;;;;;;;5046222;28;20206;-84
2023/04/14 06:02:33;;;;;;;0.70;0.70;;;;;;;;;;5038395;28;20180;-85
2023/04/14 06:05:00;;;;;;;0.80;0.80;;;;;;;;;;5037143;28;20207;-84
2023/04/14 06:07:26;;;;;;;0.77;0.77;;;;;;;;;;5039560;28;20658;-84
2023/04/14 06:09:52;;;;;;;0.70;0.70;;;;;;;;;;5038377;28;20187;-85
2023/04/14 06:12:18;;;;;;;0.60;0.60;;;;;;;;;;5039477;28;20192;-86
2023/04/14 06:14:44;;;;;;;0.70;0.70;;;;;;;;;;5038768;28;20593;-84
2023/04/14 06:17:10;;;;;;;0.60;0.60;;;;;;;;;;5044839;28;20183;-85
2023/04/14 06:19:36;;;;;;;0.70;0.70;;;;;;;;;;5057197;28;21807;-82
2023/04/14 06:22:02;;;;;;;0.70;0.70;;;;;;;;;;5059017;28;20247;-86
2023/04/14 06:24:28;;;;;;;0.70;0.70;;;;;;;;;;5053085;28;20195;-85
2023/04/14 06:26:55;;;;;;;0.70;0.70;;;;;;;;;;5056998;28;20183;-85
2023/04/14 06:29:21;;;;;;;0.70;0.70;;;;;;;;;;5056231;28;20219;-84
2023/04/14 06:31:47;;;;;;;0.70;0.70;;;;;;;;;;5057504;28;20584;-86
2023/04/14 06:34:13;;;;;;;0.70;0.70;;;;;;;;;;5055035;28;20202;-84
2023/04/14 06:36:39;;;;;;;0.60;0.60;;;;;;;;;;5057246;28;20176;-86
2023/04/14 06:39:05;;;;;;;0.60;0.60;;;;;;;;;;5057345;28;20179;-84
2023/04/14 06:41:31;;;;;;;0.70;0.70;;;;;;;;;;5046482;28;20230;-85
2023/04/14 06:43:57;;;;;;;0.60;0.60;;;;;;;;;;5041980;28;20199;-86
2023/04/14 06:46:23;;;;;;;0.70;0.70;;;;;;;;;;5057750;28;20650;-90
2023/04/14 06:48:49;;;;;;;0.67;0.67;;;;;;;;;;5059787;28;20211;-86
2023/04/14 06:51:15;;;;;;;0.60;0.60;;;;;;;;;;5058835;28;20213;-86
2023/04/14 06:53:41;;;;;;;0.60;0.60;;;;;;;;;;5057900;28;20203;-85
2023/04/14 06:56:07;;;;;;;0.60;0.60;;;;;;;;;;5058889;28;20650;-87
2023/04/14 06:58:33;;;;;;;0.60;0.60;;;;;;;;;;5060990;28;20175;-87
2023/04/14 07:01:00;;;;;;;0.60;0.60;;;;;;;;;;5060303;28;20537;-83
2023/04/14 07:03:27;;;;;;;0.53;0.53;;;;;;;;;;5060999;28;20191;-87
2023/04/14 07:05:53;;;;;;;0.70;0.70;;;;;;;;;;5062596;28;20205;-87
2023/04/14 07:08:20;;;;;;;0.60;0.60;;;;;;;;;;5071621;28;20214;-87
2023/04/14 07:10:46;;;;;;;0.60;0.60;;;;;;;;;;5064685;28;20172;-89
2023/04/14 07:13:12;;;;;;;0.60;0.60;;;;;;;;;;5053990;28;20698;-86
2023/04/14 07:15:38;;;;;;;0.60;0.60;;;;;;;;;;5057625;28;20206;-85
2023/04/14 07:18:04;;;;;;;0.70;0.70;;;;;;;;;;5051539;28;20175;-84
2023/04/14 07:20:32;;;;;;;0.60;0.60;;;;;;;;;;5058019;28;20269;-82
2023/04/14 07:22:57;;;;;;;0.50;0.50;;;;;;;;;;5058985;28;20179;-85
2023/04/14 07:25:24;;;;;;;0.40;0.40;;;;;;;;;;5060788;28;20186;-84
2023/04/14 07:27:50;;;;;;;0.40;0.40;;;;;;;;;;5058439;28;20211;-85
2023/04/14 07:30:16;;;;;;;0.50;0.50;;;;;;;;;;5058478;28;20831;-83
2023/04/14 07:32:42;;;;;;;0.40;0.40;;;;;;;;;;5056885;28;20190;-84
2023/04/14 07:35:09;;;;;;;0.37;0.37;;;;;;;;;;5057003;28;20199;-86
2023/04/14 07:37:35;;;;;;;0.40;0.40;;;;;;;;;;5056664;28;20218;-84
2023/04/14 07:40:02;;;;;;;0.40;0.40;;;;;;;;;;5056734;28;20171;-83
2023/04/14 07:42:28;;;;;;;0.40;0.40;;;;;;;;;;5056619;28;20186;-84
2023/04/14 07:44:54;;;;;;;0.50;0.50;;;;;;;;;;5056639;28;20229;-84
2023/04/14 07:47:20;;;;;;;0.40;0.40;;;;;;;;;;5057497;28;20544;-82
2023/04/14 07:49:46;;;;;;;0.40;0.40;;;;;;;;;;5056331;28;20185;-85
2023/04/14 07:52:12;;;;;;;0.40;0.40;;;;;;;;;;5056119;28;20183;-85
2023/04/14 07:54:38;;;;;;;0.40;0.40;;;;;;;;;;5055970;28;20203;-83
2023/04/14 07:57:04;;;;;;;0.30;0.30;;;;;;;;;;5041323;28;20186;-85
2023/04/14 07:59:30;;;;;;;0.40;0.40;;;;;;;;;;5036400;28;20182;-82
2023/04/14 08:01:57;;;;;;;0.30;0.30;;;;;;;;;;5037963;28;20232;-83
2023/04/14 08:04:23;;;;;;;0.40;0.40;;;;;;;;;;5045021;28;20538;-83
2023/04/14 08:06:50;;;;;;;0.30;0.30;;;;;;;;;;5076569;28;20173;-82
2023/04/14 08:09:16;;;;;;;0.30;0.30;;;;;;;;;;5076669;28;20218;-84
2023/04/14 08:11:42;;;;;;;0.30;0.30;;;;;;;;;;5071605;28;20179;-86
2023/04/14 08:14:08;;;;;;;0.30;0.30;;;;;;;;;;5056740;28;20214;-84
2023/04/14 08:16:35;;;;;;;0.30;0.30;;;;;;;;;;5056124;28;20184;-91
2023/04/14 08:19:01;;;;;;;0.33;0.33;;;;;;;;;;5046531;28;20329;-84
2023/04/14 08:21:27;;;;;;;0.30;0.30;;;;;;;;;;5039804;28;20234;-83
2023/04/14 08:23:53;;;;;;;0.30;0.30;;;;;;;;;;5038148;28;20565;-83
2023/04/14 08:26:20;;;;;;;0.30;0.30;;;;;;;;;;5037275;28;20179;-84
2023/04/14 08:28:46;;;;;;;0.30;0.30;;;;;;;;;;5038412;28;20215;-84
2023/04/14 08:31:12;;;;;;;0.30;0.30;;;;;;;;;;5048025;28;20176;-84
2023/04/14 08:33:38;;;;;;;0.30;0.30;;;;;;;;;;5048934;28;20195;-84
2023/04/14 08:36:04;;;;;;;0.30;0.30;;;;;;;;;;5047702;28;20171;-83
2023/04/14 08:38:30;;;;;;;0.50;0.50;;;;;;;;;;5057020;28;20198;-83
2023/04/14 08:40:56;;;;;;;0.30;0.30;;;;;;;;;;5050490;28;20246;-83
2023/04/14 08:43:22;;;;;;;0.30;0.30;;;;;;;;;;5037193;28;20638;-84
2023/04/14 08:45:50;;;;;;;0.40;0.40;;;;;;;;;;5037173;28;20183;-84
2023/04/14 08:48:18;;;;;;;0.40;0.40;;;;;;;;;;5037424;28;20219;-84
2023/04/14 08:51:23;;;;;;;0.40;0.40;;;;;;;;;;5036557;28;20258;-85
2023/04/14 08:53:51;;;;;;;0.30;0.30;;;;;;;;;;4997515;28;20208;-84
2023/04/14 08:56:18;;;;;;;0.50;0.50;;;;;;;;;;5014056;28;20242;-85
2023/04/14 08:58:44;;;;;;;0.50;0.50;;;;;;;;;;5036231;28;20617;-86
2023/04/14 09:01:10;;;;;;;0.40;0.40;;;;;;;;;;5060965;28;20182;-84
2023/04/14 09:03:37;;;;;;;0.33;0.33;;;;;;;;;;5061217;28;20225;-83
2023/04/14 09:06:04;;;;;;;0.40;0.40;;;;;;;;;;5060494;28;20184;-83
2023/04/14 09:08:34;;;;;;;0.30;0.30;;;;;;;;;;5059002;28;20226;-84
2023/04/14 09:11:03;;;;;;;0.30;0.30;;;;;;;;;;5048668;28;20222;-84
2023/04/14 09:13:30;;;;;;;0.30;0.30;;;;;;;;;;5048934;28;20207;-84
2023/04/14 09:15:56;;;;;;;0.40;0.40;;;;;;;;;;5065841;28;20182;-85
2023/04/14 09:18:22;;;;;;;0.40;0.40;;;;;;;;;;5048633;28;20531;-82
2023/04/14 09:20:48;;;;;;;0.40;0.40;;;;;;;;;;5043741;28;20191;-81
2023/04/14 09:23:15;;;;;;;0.30;0.30;;;;;;;;;;5062655;28;20195;-80
2023/04/14 09:25:41;;;;;;;0.40;0.40;;;;;;;;;;5050885;28;20638;-82
2023/04/14 09:28:08;;;;;;;0.40;0.40;;;;;;;;;;5064370;28;20404;-83
2023/04/14 09:30:34;;;;;;;0.40;0.40;;;;;;;;;;5058630;28;20254;-82
2023/04/14 09:33:06;;;;;;;0.40;0.40;;;;;;;;;;5057326;28;20239;-82
2023/04/14 09:35:43;;;;;;;0.60;0.60;;;;;;;;;;5059643;28;20202;-81
2023/04/14 09:38:09;;;;;;;0.40;0.40;;;;;;;;;;5041655;28;20748;-84
2023/04/14 09:40:37;;;;;;;0.40;0.40;;;;;;;;;;5052049;28;20172;-82
2023/04/14 09:43:04;;;;;;;0.30;0.30;;;;;;;;;;5048348;28;20261;-83
2023/04/14 09:45:43;;;;;;;0.30;0.30;;;;;;;;;;5057303;28;20182;-82
2023/04/14 09:48:09;;;;;;;0.40;0.40;;;;;;;;;;5042889;28;20243;-82
2023/04/14 09:50:55;;;;;;;0.30;0.30;;;;;;;;;;5059076;28;20631;-84
2023/04/14 09:53:28;;;;;;;0.30;0.30;;;;;;;;;;5047221;28;20207;-83
2023/04/14 09:55:54;;;;;;;0.30;0.30;;;;;;;;;;5060705;28;20206;-84
2023/04/14 09:58:21;;;;;;;0.20;0.20;;;;;;;;;;5050990;28;20168;-84
2023/04/14 10:00:47;;;;;;;0.33;0.33;;;;;;;;;;5060161;28;20561;-84
2023/04/14 10:03:13;;;;;;;0.30;0.30;;;;;;;;;;5049796;28;20200;-83
2023/04/14 10:05:45;;;;;;;0.30;0.30;;;;;;;;;;5051068;28;20188;-83
2023/04/14 10:08:11;;;;;;;0.33;0.33;;;;;;;;;;5043223;28;20211;-83
2023/04/14 10:10:37;;;;;;;0.30;0.30;;;;;;;;;;5055513;28;20171;-86
2023/04/14 10:13:03;;;;;;;0.37;0.37;;;;;;;;;;5052521;28;20350;-83
2023/04/14 10:15:30;;;;;;;0.40;0.40;;;;;;;;;;5048082;28;20230;-84
2023/04/14 10:17:56;;;;;;;0.30;0.30;;;;;;;;;;5048174;28;20191;-84
2023/04/14 10:20:22;;;;;;;0.30;0.30;;;;;;;;;;5065934;28;20197;-83
2023/04/14 10:22:48;;;;;;;0.30;0.30;;;;;;;;;;5041705;28;20180;-82
2023/04/14 10:25:14;;;;;;;0.30;0.30;;;;;;;;;;5038175;28;20191;-84
2023/04/14 10:27:40;;;;;;;0.40;0.40;;;;;;;;;;5051059;28;20572;-84
2023/04/14 10:30:07;;;;;;;0.50;0.50;;;;;;;;;;5059011;28;20175;-83
2023/04/14 10:32:34;;;;;;;0.40;0.40;;;;;;;;;;5057678;28;20183;-83
2023/04/14 10:35:04;;;;;;;0.40;0.40;;;;;;;;;;5066817;28;20301;-84
2023/04/14 10:37:34;;;;;;;0.40;0.40;;;;;;;;;;5052493;28;20243;-82
2023/04/14 10:40:01;;;;;;;0.37;0.37;;;;;;;;;;5042610;28;20183;-83
2023/04/14 10:42:31;;;;;;;0.20;0.20;;;;;;;;;;5039652;28;20190;-84
2023/04/14 10:45:04;;;;;;;0.40;0.40;;;;;;;;;;5040156;28;20206;-83
2023/04/14 10:47:30;;;;;;;0.30;0.30;;;;;;;;;;5037999;28;20183;-84
2023/04/14 10:49:57;;;;;;;0.40;0.40;;;;;;;;;;5041323;28;20226;-82
2023/04/14 10:52:24;;;;;;;0.30;0.30;;;;;;;;;;5054849;28;20179;-85
2023/04/14 10:54:54;;;;;;;0.30;0.30;;;;;;;;;;5059963;28;20202;-83
2023/04/14 10:57:23;;;;;;;0.30;0.30;;;;;;;;;;5059615;28;20540;-86
2023/04/14 10:59:53;;;;;;;0.37;0.37;;;;;;;;;;5059838;28;20179;-84
2023/04/14 11:02:23;;;;;;;0.30;0.30;;;;;;;;;;5060139;28;20175;-83
2023/04/14 11:04:58;;;;;;;0.30;0.30;;;;;;;;;;5059143;28;20203;-84
2023/04/14 11:07:24;;;;;;;0.30;0.30;;;;;;;;;;5061206;28;20236;-85
2023/04/14 11:09:50;;;;;;;0.40;0.40;;;;;;;;;;5074130;28;20205;-88
2023/04/14 11:12:23;;;;;;;0.40;0.40;;;;;;;;;;5075648;28;20203;-86
2023/04/14 11:14:49;;;;;;;0.30;0.30;;;;;;;;;;5077260;28;20195;-86
2023/04/14 11:17:21;;;;;;;0.40;0.40;;;;;;;;;;5065710;28;20651;-81
2023/04/14 11:19:47;;;;;;;0.30;0.30;;;;;;;;;;5057579;28;20330;-83
2023/04/14 11:22:13;;;;;;;0.40;0.40;;;;;;;;;;5056924;28;20542;-83
2023/04/14 11:24:39;;;;;;;0.30;0.30;;;;;;;;;;5056924;28;20199;-83
2023/04/14 11:27:05;;;;;;;0.30;0.30;;;;;;;;;;5058034;28;20620;-80
2023/04/14 11:29:31;;;;;;;0.43;0.43;;;;;;;;;;5056116;28;20305;-81
2023/04/14 11:32:00;;;;;;;0.33;0.33;;;;;;;;;;5056939;28;20258;-82
2023/04/14 11:34:27;;;;;;;0.30;0.30;;;;;;;;;;5052664;28;20223;-81
2023/04/14 11:36:54;;;;;;;0.30;0.30;;;;;;;;;;5041247;28;20172;-81
2023/04/14 11:39:21;;;;;;;0.30;0.30;;;;;;;;;;5040455;28;20184;-80
2023/04/14 11:41:47;;;;;;;0.30;0.30;;;;;;;;;;5037087;28;20191;-81
2023/04/14 11:44:17;;;;;;;0.40;0.40;;;;;;;;;;5035892;28;20196;-82
2023/04/14 11:46:43;;;;;;;0.40;0.40;;;;;;;;;;5035067;28;20179;-81
2023/04/14 11:49:10;;;;;;;0.40;0.40;;;;;;;;;;5036424;28;20269;-83
2023/04/14 11:51:36;;;;;;;0.40;0.40;;;;;;;;;;5037273;28;20178;-83
2023/04/14 11:54:02;;;;;;;0.30;0.30;;;;;;;;;;5037381;28;20218;-82
2023/04/14 11:56:29;;;;;;;0.40;0.40;;;;;;;;;;5037727;28;20179;-84
2023/04/14 11:59:03;;;;;;;0.30;0.30;;;;;;;;;;5039052;28;20168;-81
2023/04/14 12:01:29;;;;;;;0.40;0.40;;;;;;;;;;5038738;28;20196;-83
2023/04/14 12:03:56;;;;;;;0.40;0.40;;;;;;;;;;5040707;28;20199;-82
2023/04/14 12:06:22;;;;;;;0.40;0.40;;;;;;;;;;5042654;28;20180;-82
2023/04/14 12:08:52;;;;;;;0.33;0.33;;;;;;;;;;5042424;28;20265;-81
2023/04/14 12:11:18;;;;;;;0.40;0.40;;;;;;;;;;5041545;28;20203;-82
2023/04/14 12:13:45;;;;;;;0.40;0.40;;;;;;;;;;5049920;28;20195;-81
2023/04/14 12:16:11;;;;;;;0.40;0.40;;;;;;;;;;5060355;28;20184;-81
2023/04/14 12:18:38;;;;;;;0.43;0.43;;;;;;;;;;5061855;28;20270;-81
2023/04/14 12:21:05;;;;;;;0.40;0.40;;;;;;;;;;5061353;28;20187;-81
2023/04/14 12:23:37;;;;;;;0.40;0.40;;;;;;;;;;5062727;28;20195;-81
2023/04/14 12:26:08;;;;;;;0.40;0.40;;;;;;;;;;5061904;28;20174;-81
2023/04/14 12:28:37;;;;;;;0.40;0.40;;;;;;;;;;5061446;28;20278;-79
2023/04/14 12:31:03;;;;;;;0.50;0.50;;;;;;;;;;5061133;28;20175;-81
2023/04/14 12:33:30;;;;;;;0.40;0.40;;;;;;;;;;5055320;28;20200;-81
2023/04/14 12:36:03;;;;;;;0.50;0.50;;;;;;;;;;5042640;28;20181;-82
2023/04/14 12:38:29;;;;;;;0.40;0.40;;;;;;;;;;5087764;22;20733;-84
2023/04/14 12:40:55;;;;;;;0.47;0.47;;;;;;;;;;5072437;28;20205;-83
2023/04/14 12:43:48;;;;;;;0.30;0.30;;;;;;;;;;5064573;28;20194;-85
2023/04/14 12:46:22;;;;;;;0.40;0.40;;;;;;;;;;5065536;28;20642;-83
2023/04/14 12:48:48;;;;;;;0.50;0.50;;;;;;;;;;5066359;28;20210;-86
2023/04/14 12:51:15;;;;;;;0.40;0.40;;;;;;;;;;5058140;28;20172;-85
2023/04/14 12:53:42;;;;;;;0.47;0.47;;;;;;;;;;5056783;28;20241;-83
2023/04/14 12:56:09;;;;;;;0.30;0.30;;;;;;;;;;5056895;28;20214;-83
2023/04/14 12:58:36;;;;;;;0.40;0.40;;;;;;;;;;5056739;28;20175;-82
2023/04/14 13:01:02;;;;;;;0.40;0.40;;;;;;;;;;5057032;28;20646;-83
2023/04/14 13:03:53;;;;;;;0.40;0.40;;;;;;;;;;5055680;28;20203;-82
2023/04/14 13:06:19;;;;;;;0.40;0.40;;;;;;;;;;5057065;28;20206;-83
2023/04/14 13:08:49;;;;;;;0.40;0.40;;;;;;;;;;5057337;28;20235;-84
2023/04/14 13:11:16;;;;;;;0.40;0.40;;;;;;;;;;5058006;28;20186;-82
2023/04/14 13:13:44;;;;;;;0.40;0.40;;;;;;;;;;5058399;28;20206;-84
2023/04/14 13:16:10;;;;;;;0.30;0.30;;;;;;;;;;5057416;28;20189;-83
2023/04/14 13:18:36;;;;;;;0.40;0.40;;;;;;;;;;5057176;28;20262;-84
2023/04/14 13:21:03;;;;;;;0.40;0.40;;;;;;;;;;5056854;28;20643;-83
2023/04/14 13:23:30;;;;;;;0.30;0.30;;;;;;;;;;5056451;28;20204;-84
2023/04/14 13:25:57;;;;;;;0.30;0.30;;;;;;;;;;5057456;28;20190;-82
2023/04/14 13:28:24;;;;;;;0.40;0.40;;;;;;;;;;5058530;28;20203;-84
2023/04/14 13:30:54;;;;;;;0.40;0.40;;;;;;;;;;5058798;28;20175;-80
2023/04/14 13:33:20;;;;;;;0.43;0.43;;;;;;;;;;5067211;28;20197;-82
2023/04/14 13:35:46;;;;;;;0.30;0.30;;;;;;;;;;5078793;28;20181;-82
2023/04/14 13:38:12;;;;;;;0.30;0.30;;;;;;;;;;5094682;28;20178;-83
2023/04/14 13:40:39;;;;;;;0.43;0.43;;;;;;;;;;5101564;28;20235;-79
2023/04/14 13:43:07;;;;;;;0.30;0.30;;;;;;;;;;5091021;28;20737;-82
2023/04/14 13:45:33;;;;;;;0.40;0.40;;;;;;;;;;5095314;28;20178;-82
2023/04/14 13:47:59;;;;;;;0.40;0.40;;;;;;;;;;5097209;28;20224;-81
2023/04/14 13:50:26;;;;;;;0.30;0.30;;;;;;;;;;5098943;28;20186;-82
2023/04/14 13:52:51;;;;;;;0.30;0.30;;;;;;;;;;5079057;28;20178;-83
2023/04/14 13:55:18;;;;;;;0.30;0.30;;;;;;;;;;5080159;28;20189;-82
2023/04/14 13:57:44;;;;;;;0.30;0.30;;;;;;;;;;5080323;28;20175;-84
2023/04/14 14:00:10;;;;;;;0.40;0.40;;;;;;;;;;5099786;28;20219;-82
2023/04/14 14:02:40;;;;;;;0.40;0.40;;;;;;;;;;5085687;28;20170;-81
2023/04/14 14:05:09;;;;;;;0.40;0.40;;;;;;;;;;5098833;28;20615;-83
2023/04/14 14:07:36;;;;;;;0.30;0.30;;;;;;;;;;5100184;28;20258;-81
2023/04/14 14:10:02;;;;;;;0.40;0.40;;;;;;;;;;5099185;28;20178;-85
2023/04/14 14:12:28;;;;;;;0.40;0.40;;;;;;;;;;5100392;28;20196;-81
2023/04/14 14:14:54;;;;;;;0.40;0.40;;;;;;;;;;5095598;28;20243;-82
2023/04/14 14:17:20;;;;;;;0.50;0.50;;;;;;;;;;5080747;28;20782;-86
2023/04/14 14:19:47;;;;;;;0.30;0.30;;;;;;;;;;5077535;28;20194;-82
2023/04/14 14:22:13;;;;;;;0.40;0.40;;;;;;;;;;5077619;28;20174;-82
2023/04/14 14:24:39;;;;;;;0.40;0.40;;;;;;;;;;5096710;28;20212;-81
2023/04/14 14:27:05;;;;;;;0.50;0.50;;;;;;;;;;5076193;28;20197;-82
2023/04/14 14:29:33;;;;;;;0.40;0.40;;;;;;;;;;5076081;28;20210;-84
2023/04/14 14:31:59;;;;;;;0.30;0.30;;;;;;;;;;5064272;28;20186;-83
2023/04/14 14:34:25;;;;;;;0.60;0.60;;;;;;;;;;5095357;28;20197;-81
2023/04/14 14:36:51;;;;;;;0.50;0.50;;;;;;;;;;5099749;28;20264;-80
2023/04/14 14:39:17;;;;;;;0.50;0.50;;;;;;;;;;5088272;28;20204;-82
2023/04/14 14:41:43;;;;;;;0.40;0.40;;;;;;;;;;5091505;28;20182;-82
2023/04/14 14:44:09;;;;;;;0.40;0.40;;;;;;;;;;5080853;28;20205;-81